createdAt,value
2018-01-21T00:00:24.359Z,993.28
2018-01-21T00:01:24.351Z,993.32
2018-01-21T00:02:24.343Z,993.30
2018-01-21T00:03:24.337Z,993.33
2018-01-21T00:04:24.329Z,993.28
2018-01-21T00:05:24.322Z,993.31
2018-01-21T00:06:24.313Z,993.36
2018-01-21T00:07:24.308Z,993.40
2018-01-21T00:08:24.300Z,993.41
2018-01-21T00:09:24.293Z,993.44
2018-01-21T00:10:24.289Z,993.46
2018-01-21T00:11:24.277Z,993.51
2018-01-21T00:12:24.269Z,993.54
2018-01-21T00:13:24.263Z,993.49
2018-01-21T00:14:24.255Z,993.53
2018-01-21T00:15:24.249Z,993.53
2018-01-21T00:16:24.242Z,993.53
2018-01-21T00:17:24.235Z,993.58
2018-01-21T00:18:24.226Z,993.57
2018-01-21T00:19:24.219Z,993.60
2018-01-21T00:20:24.212Z,993.62
2018-01-21T00:21:24.204Z,993.68
2018-01-21T00:22:24.197Z,993.69
2018-01-21T00:23:24.189Z,993.70
2018-01-21T00:24:24.183Z,993.73
2018-01-21T00:25:24.176Z,993.78
2018-01-21T00:26:24.168Z,993.79
2018-01-21T00:27:24.160Z,993.80
2018-01-21T00:28:24.154Z,993.83
2018-01-21T00:29:24.147Z,993.79
2018-01-21T00:30:24.138Z,993.85
2018-01-21T00:31:24.130Z,993.82
2018-01-21T00:32:24.125Z,993.84
2018-01-21T00:33:24.116Z,993.84
2018-01-21T00:34:24.109Z,993.81
2018-01-21T00:35:24.102Z,993.88
2018-01-21T00:36:24.094Z,993.91
2018-01-21T00:37:24.087Z,993.91
2018-01-21T00:38:24.079Z,993.94
2018-01-21T00:39:24.072Z,993.93
2018-01-21T00:40:24.064Z,993.93
2018-01-21T00:41:24.059Z,993.97
2018-01-21T00:42:24.049Z,994.01
2018-01-21T00:43:24.044Z,994.02
2018-01-21T00:44:24.036Z,994.01
2018-01-21T00:45:24.028Z,994.03
2018-01-21T00:46:24.020Z,994.03
2018-01-21T00:47:24.014Z,994.09
2018-01-21T00:48:24.006Z,994.13
2018-01-21T00:49:24.000Z,994.14
2018-01-21T00:50:23.991Z,994.15
2018-01-21T00:51:23.983Z,994.16
2018-01-21T00:52:24.025Z,994.20
2018-01-21T00:53:23.974Z,994.23
2018-01-21T00:54:23.961Z,994.25
2018-01-21T00:55:23.953Z,994.28
2018-01-21T00:56:23.948Z,994.35
2018-01-21T00:57:23.952Z,994.33
2018-01-21T00:58:23.932Z,994.31
2018-01-21T00:59:23.926Z,994.34
2018-01-21T01:00:23.923Z,994.35
2018-01-21T01:01:23.911Z,994.33
2018-01-21T01:02:23.902Z,994.39
2018-01-21T01:03:23.895Z,994.42
2018-01-21T01:04:23.888Z,994.42
2018-01-21T01:05:23.885Z,994.44
2018-01-21T01:06:23.875Z,994.50
2018-01-21T01:07:23.865Z,994.50
2018-01-21T01:08:23.858Z,994.54
2018-01-21T01:09:23.861Z,994.55
2018-01-21T01:10:23.843Z,994.55
2018-01-21T01:11:23.836Z,994.61
2018-01-21T01:12:23.830Z,994.62
2018-01-21T01:13:23.822Z,994.60
2018-01-21T01:14:23.815Z,994.66
2018-01-21T01:15:23.807Z,994.70
2018-01-21T01:16:23.801Z,994.72
2018-01-21T01:17:23.793Z,994.80
2018-01-21T01:18:23.785Z,994.78
2018-01-21T01:19:23.778Z,994.81
2018-01-21T01:20:23.771Z,994.89
2018-01-21T01:21:23.764Z,994.89
2018-01-21T01:22:23.756Z,994.88
2018-01-21T01:23:23.749Z,994.90
2018-01-21T01:24:23.742Z,994.94
2018-01-21T01:25:23.733Z,994.94
2018-01-21T01:26:23.726Z,995.00
2018-01-21T01:27:23.719Z,995.00
2018-01-21T01:28:23.711Z,994.98
2018-01-21T01:29:23.704Z,995.02
2018-01-21T01:30:23.696Z,995.00
2018-01-21T01:31:23.689Z,995.05
2018-01-21T01:32:23.682Z,995.06
2018-01-21T01:33:23.674Z,995.03
2018-01-21T01:34:23.666Z,994.99
2018-01-21T01:35:23.661Z,995.04
2018-01-21T01:36:23.653Z,995.11
2018-01-21T01:37:23.645Z,995.20
2018-01-21T01:38:23.637Z,995.22
2018-01-21T01:39:23.631Z,995.18
2018-01-21T01:40:23.623Z,995.29
2018-01-21T01:41:23.618Z,995.27
2018-01-21T01:42:23.607Z,995.23
2018-01-21T01:43:23.601Z,995.25
2018-01-21T01:44:23.594Z,995.25
2018-01-21T01:45:23.585Z,995.22
2018-01-21T01:46:23.578Z,995.25
2018-01-21T01:47:23.570Z,995.28
2018-01-21T01:48:23.564Z,995.27
2018-01-21T01:49:23.556Z,995.30
2018-01-21T01:50:23.549Z,995.36
2018-01-21T01:51:23.540Z,995.37
2018-01-21T01:52:23.533Z,995.40
2018-01-21T01:53:23.526Z,995.46
2018-01-21T01:54:23.519Z,995.47
2018-01-21T01:55:23.512Z,995.47
2018-01-21T01:56:23.503Z,995.46
2018-01-21T01:57:23.496Z,995.51
2018-01-21T01:58:23.489Z,995.50
2018-01-21T01:59:23.480Z,995.56
2018-01-21T02:00:23.473Z,995.52
2018-01-21T02:01:23.466Z,995.54
2018-01-21T02:02:23.458Z,995.50
2018-01-21T02:03:23.451Z,995.52
2018-01-21T02:04:23.444Z,995.53
2018-01-21T02:05:23.437Z,995.55
2018-01-21T02:06:23.428Z,995.56
2018-01-21T02:07:23.421Z,995.60
2018-01-21T02:08:23.414Z,995.66
2018-01-21T02:09:23.408Z,995.62
2018-01-21T02:10:23.399Z,995.69
2018-01-21T02:11:23.392Z,995.69
2018-01-21T02:12:23.385Z,995.70
2018-01-21T02:13:23.376Z,995.71
2018-01-21T02:14:23.369Z,995.76
2018-01-21T02:15:23.360Z,995.78
2018-01-21T02:16:23.354Z,995.83
2018-01-21T02:17:23.346Z,995.83
2018-01-21T02:18:23.337Z,995.87
2018-01-21T02:19:23.329Z,995.90
2018-01-21T02:20:23.322Z,995.87
2018-01-21T02:21:23.315Z,995.89
2018-01-21T02:22:23.307Z,995.91
2018-01-21T02:23:23.304Z,995.94
2018-01-21T02:24:23.292Z,995.95
2018-01-21T02:25:23.285Z,995.96
2018-01-21T02:26:23.277Z,995.98
2018-01-21T02:27:23.269Z,995.98
2018-01-21T02:28:23.261Z,995.99
2018-01-21T02:29:23.255Z,995.97
2018-01-21T02:30:23.246Z,995.94
2018-01-21T02:31:23.238Z,996.00
2018-01-21T02:32:23.231Z,996.03
2018-01-21T02:33:23.225Z,996.07
2018-01-21T02:34:23.215Z,996.09
2018-01-21T02:35:23.207Z,996.12
2018-01-21T02:36:23.199Z,996.12
2018-01-21T02:37:23.191Z,996.15
2018-01-21T02:38:23.185Z,996.23
2018-01-21T02:39:23.177Z,996.23
2018-01-21T02:40:23.170Z,996.24
2018-01-21T02:41:23.163Z,996.30
2018-01-21T02:42:23.154Z,996.31
2018-01-21T02:43:23.146Z,996.32
2018-01-21T02:44:23.138Z,996.33
2018-01-21T02:45:23.131Z,996.37
2018-01-21T02:46:23.121Z,996.34
2018-01-21T02:47:23.113Z,996.38
2018-01-21T02:48:23.111Z,996.39
2018-01-21T02:49:23.104Z,996.44
2018-01-21T02:50:23.090Z,996.41
2018-01-21T02:51:23.082Z,996.47
2018-01-21T02:52:23.096Z,996.47
2018-01-21T02:53:23.067Z,996.50
2018-01-21T02:54:23.058Z,996.52
2018-01-21T02:55:23.051Z,996.50
2018-01-21T02:56:23.043Z,996.55
2018-01-21T02:57:23.036Z,996.56
2018-01-21T02:58:23.026Z,996.51
2018-01-21T02:59:23.022Z,996.55
2018-01-21T03:00:23.011Z,996.60
2018-01-21T03:01:23.004Z,996.62
2018-01-21T03:02:22.994Z,996.64
2018-01-21T03:03:22.988Z,996.59
2018-01-21T03:04:22.979Z,996.64
2018-01-21T03:05:22.970Z,996.67
2018-01-21T03:06:22.968Z,996.67
2018-01-21T03:07:22.955Z,996.69
2018-01-21T03:08:22.948Z,996.75
2018-01-21T03:09:22.942Z,996.79
2018-01-21T03:10:22.931Z,996.80
2018-01-21T03:11:22.923Z,996.83
2018-01-21T03:12:22.916Z,996.89
2018-01-21T03:13:22.908Z,996.91
2018-01-21T03:14:22.900Z,996.91
2018-01-21T03:15:22.893Z,996.99
2018-01-21T03:16:22.884Z,996.97
2018-01-21T03:17:22.876Z,996.93
2018-01-21T03:18:22.867Z,996.99
2018-01-21T03:19:22.860Z,997.01
2018-01-21T03:20:22.852Z,997.01
2018-01-21T03:21:22.845Z,997.01
2018-01-21T03:22:22.837Z,996.98
2018-01-21T03:23:22.828Z,997.03
2018-01-21T03:24:22.821Z,997.03
2018-01-21T03:25:22.813Z,997.02
2018-01-21T03:26:22.806Z,997.04
2018-01-21T03:27:22.797Z,996.96
2018-01-21T03:28:22.822Z,997.02
2018-01-21T03:29:22.782Z,997.05
2018-01-21T03:30:22.773Z,997.11
2018-01-21T03:31:22.769Z,997.16
2018-01-21T03:32:22.783Z,997.15
2018-01-21T03:33:22.749Z,997.19
2018-01-21T03:34:22.740Z,997.19
2018-01-21T03:35:22.732Z,997.19
2018-01-21T03:36:22.725Z,997.22
2018-01-21T03:37:22.718Z,997.23
2018-01-21T03:38:22.714Z,997.20
2018-01-21T03:39:22.703Z,997.20
2018-01-21T03:40:22.693Z,997.27
2018-01-21T03:41:22.686Z,997.24
2018-01-21T03:42:22.677Z,997.30
2018-01-21T03:43:22.668Z,997.31
2018-01-21T03:44:22.660Z,997.35
2018-01-21T03:45:22.653Z,997.38
2018-01-21T03:46:22.642Z,997.37
2018-01-21T03:47:22.635Z,997.40
2018-01-21T03:48:22.629Z,997.39
2018-01-21T03:49:22.621Z,997.46
2018-01-21T03:50:22.611Z,997.50
2018-01-21T03:51:22.604Z,997.52
2018-01-21T03:52:22.596Z,997.56
2018-01-21T03:53:22.587Z,997.54
2018-01-21T03:54:22.580Z,997.57
2018-01-21T03:55:22.570Z,997.59
2018-01-21T03:56:22.563Z,997.62
2018-01-21T03:57:22.554Z,997.63
2018-01-21T03:58:22.546Z,997.63
2018-01-21T03:59:22.538Z,997.64
2018-01-21T04:00:22.531Z,997.64
2018-01-21T04:01:22.522Z,997.67
2018-01-21T04:02:22.514Z,997.69
2018-01-21T04:03:22.506Z,997.69
2018-01-21T04:04:22.498Z,997.69
2018-01-21T04:05:22.490Z,997.63
2018-01-21T04:06:22.522Z,997.69
2018-01-21T04:07:22.473Z,997.74
2018-01-21T04:08:22.465Z,997.73
2018-01-21T04:09:22.459Z,997.74
2018-01-21T04:10:22.451Z,997.75
2018-01-21T04:11:22.441Z,997.78
2018-01-21T04:12:22.435Z,997.82
2018-01-21T04:13:22.426Z,997.79
2018-01-21T04:14:22.418Z,997.80
2018-01-21T04:15:22.409Z,997.79
2018-01-21T04:16:22.401Z,997.83
2018-01-21T04:17:22.393Z,997.82
2018-01-21T04:18:22.386Z,997.88
2018-01-21T04:19:22.376Z,997.91
2018-01-21T04:20:22.368Z,997.91
2018-01-21T04:21:22.360Z,997.92
2018-01-21T04:22:22.351Z,997.93
2018-01-21T04:23:22.344Z,997.95
2018-01-21T04:24:22.335Z,997.95
2018-01-21T04:25:22.328Z,997.97
2018-01-21T04:26:22.320Z,997.98
2018-01-21T04:27:22.311Z,998.00
2018-01-21T04:28:22.305Z,998.04
2018-01-21T04:29:22.296Z,998.03
2018-01-21T04:30:22.286Z,998.07
2018-01-21T04:31:22.280Z,998.11
2018-01-21T04:32:22.270Z,998.15
2018-01-21T04:33:22.263Z,998.18
2018-01-21T04:34:22.253Z,998.25
2018-01-21T04:35:22.245Z,998.28
2018-01-21T04:36:22.238Z,998.32
2018-01-21T04:37:22.229Z,998.32
2018-01-21T04:38:22.222Z,998.35
2018-01-21T04:39:22.213Z,998.35
2018-01-21T04:40:22.206Z,998.34
2018-01-21T04:41:22.197Z,998.34
2018-01-21T04:42:22.188Z,998.39
2018-01-21T04:43:22.180Z,998.41
2018-01-21T04:44:22.174Z,998.49
2018-01-21T04:45:22.165Z,998.47
2018-01-21T04:46:22.155Z,998.50
2018-01-21T04:47:22.148Z,998.47
2018-01-21T04:48:22.140Z,998.50
2018-01-21T04:49:22.132Z,998.49
2018-01-21T04:50:22.125Z,998.52
2018-01-21T04:51:22.117Z,998.51
2018-01-21T04:52:22.108Z,998.54
2018-01-21T04:53:22.101Z,998.54
2018-01-21T04:54:22.092Z,998.57
2018-01-21T04:55:22.084Z,998.59
2018-01-21T04:56:22.075Z,998.62
2018-01-21T04:57:22.068Z,998.64
2018-01-21T04:58:22.061Z,998.65
2018-01-21T04:59:22.049Z,998.70
2018-01-21T05:00:22.043Z,998.69
2018-01-21T05:01:22.035Z,998.77
2018-01-21T05:02:22.027Z,998.74
2018-01-21T05:03:22.019Z,998.73
2018-01-21T05:04:22.011Z,998.74
2018-01-21T05:05:22.003Z,998.74
2018-01-21T05:06:21.994Z,998.77
2018-01-21T05:07:21.997Z,998.78
2018-01-21T05:08:21.977Z,998.80
2018-01-21T05:09:21.969Z,998.84
2018-01-21T05:10:21.960Z,998.83
2018-01-21T05:11:21.953Z,998.85
2018-01-21T05:12:21.944Z,998.81
2018-01-21T05:13:21.936Z,998.82
2018-01-21T05:14:21.927Z,998.86
2018-01-21T05:15:21.919Z,998.85
2018-01-21T05:16:21.912Z,998.82
2018-01-21T05:17:21.906Z,998.86
2018-01-21T05:18:21.894Z,998.90
2018-01-21T05:19:21.887Z,998.92
2018-01-21T05:20:21.879Z,998.94
2018-01-21T05:21:21.870Z,998.91
2018-01-21T05:22:21.861Z,998.90
2018-01-21T05:23:21.853Z,998.89
2018-01-21T05:24:21.846Z,998.96
2018-01-21T05:25:21.836Z,998.93
2018-01-21T05:26:21.828Z,998.97
2018-01-21T05:27:21.821Z,998.95
2018-01-21T05:28:21.813Z,998.97
2018-01-21T05:29:21.804Z,998.96
2018-01-21T05:30:21.796Z,998.95
2018-01-21T05:31:21.787Z,998.98
2018-01-21T05:32:21.779Z,998.99
2018-01-21T05:33:21.771Z,999.02
2018-01-21T05:34:21.762Z,998.98
2018-01-21T05:35:21.754Z,999.03
2018-01-21T05:36:21.746Z,999.02
2018-01-21T05:37:21.738Z,999.02
2018-01-21T05:38:21.729Z,999.03
2018-01-21T05:39:21.722Z,999.01
2018-01-21T05:40:21.714Z,999.05
2018-01-21T05:41:21.705Z,999.03
2018-01-21T05:42:21.697Z,999.06
2018-01-21T05:43:21.687Z,999.04
2018-01-21T05:44:21.679Z,999.04
2018-01-21T05:45:21.672Z,999.09
2018-01-21T05:46:21.669Z,999.10
2018-01-21T05:47:21.655Z,999.12
2018-01-21T05:48:21.648Z,999.14
2018-01-21T05:49:21.640Z,999.16
2018-01-21T05:50:21.629Z,999.21
2018-01-21T05:51:21.623Z,999.21
2018-01-21T05:52:21.615Z,999.19
2018-01-21T05:53:21.606Z,999.24
2018-01-21T05:54:21.597Z,999.27
2018-01-21T05:55:21.588Z,999.26
2018-01-21T05:56:21.581Z,999.28
2018-01-21T05:57:21.575Z,999.28
2018-01-21T05:58:21.566Z,999.37
2018-01-21T05:59:21.557Z,999.36
2018-01-21T06:00:21.548Z,999.37
2018-01-21T06:01:21.540Z,999.41
2018-01-21T06:02:21.534Z,999.42
2018-01-21T06:03:21.523Z,999.40
2018-01-21T06:04:21.515Z,999.39
2018-01-21T06:05:21.507Z,999.38
2018-01-21T06:06:21.498Z,999.37
2018-01-21T06:07:21.490Z,999.35
2018-01-21T06:08:21.482Z,999.40
2018-01-21T06:09:21.477Z,999.42
2018-01-21T06:10:21.465Z,999.43
2018-01-21T06:11:21.458Z,999.46
2018-01-21T06:12:21.450Z,999.49
2018-01-21T06:13:21.443Z,999.55
2018-01-21T06:14:21.434Z,999.56
2018-01-21T06:15:21.425Z,999.56
2018-01-21T06:16:21.418Z,999.62
2018-01-21T06:17:21.410Z,999.63
2018-01-21T06:18:21.401Z,999.67
2018-01-21T06:19:21.393Z,999.71
2018-01-21T06:20:21.387Z,999.72
2018-01-21T06:21:21.377Z,999.75
2018-01-21T06:22:21.370Z,999.78
2018-01-21T06:23:21.362Z,999.75
2018-01-21T06:24:21.353Z,999.81
2018-01-21T06:25:21.345Z,999.83
2018-01-21T06:26:21.337Z,999.84
2018-01-21T06:27:21.329Z,999.89
2018-01-21T06:28:21.320Z,999.88
2018-01-21T06:29:21.313Z,999.93
2018-01-21T06:30:21.303Z,999.95
2018-01-21T06:31:21.297Z,999.99
2018-01-21T06:32:21.289Z,999.97
2018-01-21T06:33:21.281Z,1000.01
2018-01-21T06:34:21.273Z,999.95
2018-01-21T06:35:21.264Z,1000.00
2018-01-21T06:36:21.257Z,1000.00
2018-01-21T06:37:21.252Z,1000.06
2018-01-21T06:38:21.240Z,1000.07
2018-01-21T06:39:21.231Z,1000.09
2018-01-21T06:40:21.224Z,1000.10
2018-01-21T06:41:21.215Z,1000.07
2018-01-21T06:42:21.206Z,1000.08
2018-01-21T06:43:21.198Z,1000.13
2018-01-21T06:44:21.190Z,1000.15
2018-01-21T06:45:21.183Z,1000.18
2018-01-21T06:46:21.175Z,1000.19
2018-01-21T06:47:21.166Z,1000.23
2018-01-21T06:48:21.159Z,1000.20
2018-01-21T06:49:21.152Z,1000.28
2018-01-21T06:50:21.143Z,1000.28
2018-01-21T06:51:21.134Z,1000.35
2018-01-21T06:52:21.127Z,1000.31
2018-01-21T06:53:21.119Z,1000.38
2018-01-21T06:54:21.109Z,1000.38
2018-01-21T06:55:21.103Z,1000.37
2018-01-21T06:56:21.095Z,1000.46
2018-01-21T06:57:21.088Z,1000.49
2018-01-21T06:58:21.077Z,1000.48
2018-01-21T06:59:21.069Z,1000.57
2018-01-21T07:00:21.063Z,1000.54
2018-01-21T07:01:21.055Z,1000.62
2018-01-21T07:02:21.045Z,1000.59
2018-01-21T07:03:21.039Z,1000.59
2018-01-21T07:04:21.030Z,1000.63
2018-01-21T07:05:21.023Z,1000.58
2018-01-21T07:06:21.012Z,1000.64
2018-01-21T07:07:21.004Z,1000.63
2018-01-21T07:08:20.997Z,1000.68
2018-01-21T07:09:20.989Z,1000.76
2018-01-21T07:10:20.980Z,1000.73
2018-01-21T07:11:20.976Z,1000.79
2018-01-21T07:12:20.966Z,1000.74
2018-01-21T07:13:20.958Z,1000.75
2018-01-21T07:14:20.949Z,1000.78
2018-01-21T07:15:20.942Z,1000.73
2018-01-21T07:16:20.933Z,1000.78
2018-01-21T07:17:20.926Z,1000.80
2018-01-21T07:18:20.916Z,1000.85
2018-01-21T07:19:20.909Z,1000.88
2018-01-21T07:20:20.902Z,1000.86
2018-01-21T07:21:20.892Z,1000.89
2018-01-21T07:22:20.890Z,1000.87
2018-01-21T07:23:20.878Z,1000.85
2018-01-21T07:24:20.869Z,1000.93
2018-01-21T07:25:20.863Z,1000.90
2018-01-21T07:26:20.854Z,1000.96
2018-01-21T07:27:20.845Z,1001.01
2018-01-21T07:28:20.839Z,1001.08
2018-01-21T07:29:20.830Z,1001.09
2018-01-21T07:30:20.821Z,1001.14
2018-01-21T07:31:20.815Z,1001.12
2018-01-21T07:32:20.807Z,1001.12
2018-01-21T07:33:20.798Z,1001.11
2018-01-21T07:34:20.792Z,1001.18
2018-01-21T07:35:20.782Z,1001.21
2018-01-21T07:36:20.774Z,1001.23
2018-01-21T07:37:20.766Z,1001.23
2018-01-21T07:38:20.758Z,1001.21
2018-01-21T07:39:20.750Z,1001.28
2018-01-21T07:40:20.742Z,1001.27
2018-01-21T07:41:20.734Z,1001.34
2018-01-21T07:42:20.727Z,1001.31
2018-01-21T07:43:20.718Z,1001.37
2018-01-21T07:44:20.711Z,1001.42
2018-01-21T07:45:20.703Z,1001.42
2018-01-21T07:46:20.693Z,1001.49
2018-01-21T07:47:20.687Z,1001.47
2018-01-21T07:48:20.679Z,1001.46
2018-01-21T07:49:20.671Z,1001.51
2018-01-21T07:50:20.663Z,1001.56
2018-01-21T07:51:20.656Z,1001.60
2018-01-21T07:52:20.647Z,1001.63
2018-01-21T07:53:20.639Z,1001.65
2018-01-21T07:54:20.630Z,1001.66
2018-01-21T07:55:20.623Z,1001.68
2018-01-21T07:56:20.616Z,1001.70
2018-01-21T07:57:20.608Z,1001.74
2018-01-21T07:58:20.598Z,1001.71
2018-01-21T07:59:20.591Z,1001.73
2018-01-21T08:00:20.584Z,1001.72
2018-01-21T08:01:20.575Z,1001.72
2018-01-21T08:02:20.567Z,1001.76
2018-01-21T08:03:20.559Z,1001.78
2018-01-21T08:04:20.551Z,1001.78
2018-01-21T08:05:20.544Z,1001.82
2018-01-21T08:06:20.535Z,1001.85
2018-01-21T08:07:20.528Z,1001.88
2018-01-21T08:08:20.521Z,1001.93
2018-01-21T08:09:20.514Z,1001.95
2018-01-21T08:10:20.506Z,1001.94
2018-01-21T08:11:20.496Z,1001.91
2018-01-21T08:12:20.489Z,1001.91
2018-01-21T08:13:20.481Z,1001.92
2018-01-21T08:14:20.473Z,1002.00
2018-01-21T08:15:20.466Z,1002.03
2018-01-21T08:16:20.460Z,1002.06
2018-01-21T08:17:20.450Z,1002.07
2018-01-21T08:18:20.441Z,1002.08
2018-01-21T08:19:20.433Z,1002.14
2018-01-21T08:20:20.426Z,1002.14
2018-01-21T08:21:20.420Z,1002.19
2018-01-21T08:22:20.411Z,1002.18
2018-01-21T08:23:20.404Z,1002.22
2018-01-21T08:24:20.395Z,1002.27
2018-01-21T08:25:20.389Z,1002.28
2018-01-21T08:26:20.380Z,1002.32
2018-01-21T08:27:20.372Z,1002.32
2018-01-21T08:28:20.365Z,1002.30
2018-01-21T08:29:20.360Z,1002.32
2018-01-21T08:30:20.349Z,1002.35
2018-01-21T08:31:20.341Z,1002.37
2018-01-21T08:32:20.333Z,1002.36
2018-01-21T08:33:20.326Z,1002.35
2018-01-21T08:34:20.317Z,1002.37
2018-01-21T08:35:20.310Z,1002.41
2018-01-21T08:36:20.303Z,1002.40
2018-01-21T08:37:20.295Z,1002.38
2018-01-21T08:38:20.286Z,1002.43
2018-01-21T08:39:20.281Z,1002.41
2018-01-21T08:40:20.273Z,1002.45
2018-01-21T08:41:20.266Z,1002.46
2018-01-21T08:42:20.256Z,1002.53
2018-01-21T08:43:20.249Z,1002.56
2018-01-21T08:44:20.243Z,1002.55
2018-01-21T08:45:20.234Z,1002.55
2018-01-21T08:46:20.226Z,1002.57
2018-01-21T08:47:20.220Z,1002.60
2018-01-21T08:48:20.212Z,1002.59
2018-01-21T08:49:20.204Z,1002.62
2018-01-21T08:50:20.197Z,1002.60
2018-01-21T08:51:20.188Z,1002.63
2018-01-21T08:52:20.182Z,1002.63
2018-01-21T08:53:20.174Z,1002.66
2018-01-21T08:54:20.165Z,1002.72
2018-01-21T08:55:20.164Z,1002.71
2018-01-21T08:56:20.151Z,1002.70
2018-01-21T08:57:20.143Z,1002.72
2018-01-21T08:58:20.135Z,1002.73
2018-01-21T08:59:20.128Z,1002.76
2018-01-21T09:00:20.121Z,1002.81
2018-01-21T09:01:20.113Z,1002.84
2018-01-21T09:02:20.105Z,1002.87
2018-01-21T09:03:20.097Z,1002.90
2018-01-21T09:04:20.090Z,1002.87
2018-01-21T09:05:20.085Z,1002.89
2018-01-21T09:06:20.076Z,1002.92
2018-01-21T09:07:20.068Z,1002.91
2018-01-21T09:08:20.067Z,1002.92
2018-01-21T09:09:20.053Z,1002.97
2018-01-21T09:10:20.046Z,1002.99
2018-01-21T09:11:20.037Z,1002.96
2018-01-21T09:12:20.030Z,1002.99
2018-01-21T09:13:20.024Z,1003.02
2018-01-21T09:14:20.015Z,1003.01
2018-01-21T09:15:20.008Z,1003.04
2018-01-21T09:16:19.999Z,1003.09
2018-01-21T09:17:19.993Z,1003.04
2018-01-21T09:18:19.985Z,1003.05
2018-01-21T09:19:19.977Z,1003.03
2018-01-21T09:20:19.970Z,1003.03
2018-01-21T09:21:19.964Z,1003.12
2018-01-21T09:22:19.955Z,1003.12
2018-01-21T09:23:19.950Z,1003.16
2018-01-21T09:24:19.942Z,1003.22
2018-01-21T09:25:19.937Z,1003.24
2018-01-21T09:26:19.926Z,1003.26
2018-01-21T09:27:19.918Z,1003.29
2018-01-21T09:28:19.912Z,1003.29
2018-01-21T09:29:19.905Z,1003.33
2018-01-21T09:30:19.897Z,1003.35
2018-01-21T09:31:19.891Z,1003.35
2018-01-21T09:32:19.882Z,1003.33
2018-01-21T09:33:19.875Z,1003.39
2018-01-21T09:34:19.866Z,1003.40
2018-01-21T09:35:19.858Z,1003.38
2018-01-21T09:36:19.852Z,1003.43
2018-01-21T09:37:19.845Z,1003.41
2018-01-21T09:38:19.836Z,1003.39
2018-01-21T09:39:19.829Z,1003.35
2018-01-21T09:40:19.822Z,1003.42
2018-01-21T09:41:19.816Z,1003.43
2018-01-21T09:42:19.807Z,1003.44
2018-01-21T09:43:19.802Z,1003.46
2018-01-21T09:44:19.796Z,1003.42
2018-01-21T09:45:19.785Z,1003.38
2018-01-21T09:46:19.779Z,1003.37
2018-01-21T09:47:19.771Z,1003.36
2018-01-21T09:48:19.764Z,1003.38
2018-01-21T09:49:19.758Z,1003.41
2018-01-21T09:50:19.749Z,1003.41
2018-01-21T09:51:19.742Z,1003.52
2018-01-21T09:52:19.736Z,1003.55
2018-01-21T09:53:19.747Z,1003.51
2018-01-21T09:54:19.721Z,1003.51
2018-01-21T09:55:19.716Z,1003.59
2018-01-21T09:56:19.707Z,1003.61
2018-01-21T09:57:19.700Z,1003.59
2018-01-21T09:58:19.694Z,1003.66
2018-01-21T09:59:19.687Z,1003.62
2018-01-21T10:00:19.680Z,1003.63
2018-01-21T10:01:19.672Z,1003.65
2018-01-21T10:02:19.665Z,1003.67
2018-01-21T10:03:19.659Z,1003.63
2018-01-21T10:04:19.652Z,1003.64
2018-01-21T10:05:19.646Z,1003.67
2018-01-21T10:06:19.637Z,1003.74
2018-01-21T10:07:19.630Z,1003.73
2018-01-21T10:08:19.624Z,1003.77
2018-01-21T10:09:19.617Z,1003.80
2018-01-21T10:10:19.609Z,1003.78
2018-01-21T10:11:19.603Z,1003.82
2018-01-21T10:12:19.600Z,1003.82
2018-01-21T10:13:19.590Z,1003.79
2018-01-21T10:14:19.584Z,1003.83
2018-01-21T10:15:19.577Z,1003.83
2018-01-21T10:16:19.569Z,1003.83
2018-01-21T10:17:19.562Z,1003.87
2018-01-21T10:18:19.556Z,1003.81
2018-01-21T10:19:19.548Z,1003.84
2018-01-21T10:20:19.544Z,1003.88
2018-01-21T10:21:19.536Z,1003.93
2018-01-21T10:22:19.529Z,1003.90
2018-01-21T10:23:19.523Z,1003.92
2018-01-21T10:24:19.516Z,1003.92
2018-01-21T10:25:19.511Z,1003.96
2018-01-21T10:26:19.504Z,1003.95
2018-01-21T10:27:19.496Z,1003.96
2018-01-21T10:28:19.491Z,1003.97
2018-01-21T10:29:19.485Z,1004.00
2018-01-21T10:30:19.476Z,1003.98
2018-01-21T10:31:19.471Z,1003.99
2018-01-21T10:32:19.464Z,1004.08
2018-01-21T10:33:19.459Z,1004.06
2018-01-21T10:34:19.451Z,1004.04
2018-01-21T10:35:19.446Z,1004.06
2018-01-21T10:36:19.438Z,1004.09
2018-01-21T10:37:19.435Z,1004.10
2018-01-21T10:38:19.427Z,1004.18
2018-01-21T10:39:19.420Z,1004.14
2018-01-21T10:40:19.413Z,1004.15
2018-01-21T10:41:19.407Z,1004.15
2018-01-21T10:42:19.399Z,1004.17
2018-01-21T10:43:19.394Z,1004.20
2018-01-21T10:44:19.388Z,1004.20
2018-01-21T10:45:19.381Z,1004.23
2018-01-21T10:46:19.374Z,1004.27
2018-01-21T10:47:19.406Z,1004.19
2018-01-21T10:48:19.362Z,1004.23
2018-01-21T10:49:19.356Z,1004.26
2018-01-21T10:50:19.350Z,1004.26
2018-01-21T10:51:19.343Z,1004.24
2018-01-21T10:52:19.341Z,1004.23
2018-01-21T10:53:19.331Z,1004.26
2018-01-21T10:54:19.325Z,1004.27
2018-01-21T10:55:19.318Z,1004.29
2018-01-21T10:56:19.311Z,1004.35
2018-01-21T10:57:19.306Z,1004.37
2018-01-21T10:58:19.299Z,1004.42
2018-01-21T10:59:19.293Z,1004.46
2018-01-21T11:00:19.288Z,1004.44
2018-01-21T11:01:19.283Z,1004.44
2018-01-21T11:02:19.276Z,1004.46
2018-01-21T11:03:19.272Z,1004.43
2018-01-21T11:04:19.263Z,1004.39
2018-01-21T11:05:19.257Z,1004.37
2018-01-21T11:06:19.251Z,1004.36
2018-01-21T11:07:19.246Z,1004.38
2018-01-21T11:08:19.239Z,1004.39
2018-01-21T11:09:19.234Z,1004.34
2018-01-21T11:10:19.228Z,1004.37
2018-01-21T11:11:19.222Z,1004.32
2018-01-21T11:12:19.219Z,1004.34
2018-01-21T11:13:19.209Z,1004.34
2018-01-21T11:14:19.202Z,1004.35
2018-01-21T11:15:19.198Z,1004.37
2018-01-21T11:16:19.191Z,1004.34
2018-01-21T11:17:19.185Z,1004.39
2018-01-21T11:18:19.178Z,1004.37
2018-01-21T11:19:19.174Z,1004.43
2018-01-21T11:20:19.166Z,1004.43
2018-01-21T11:21:19.161Z,1004.43
2018-01-21T11:22:19.154Z,1004.43
2018-01-21T11:23:19.149Z,1004.41
2018-01-21T11:24:19.144Z,1004.44
2018-01-21T11:25:19.139Z,1004.48
2018-01-21T11:26:19.132Z,1004.45
2018-01-21T11:27:19.127Z,1004.45
2018-01-21T11:28:19.121Z,1004.54
2018-01-21T11:29:19.114Z,1004.65
2018-01-21T11:30:19.108Z,1004.62
2018-01-21T11:31:19.102Z,1004.52
2018-01-21T11:32:19.097Z,1004.51
2018-01-21T11:33:19.092Z,1004.48
2018-01-21T11:34:19.084Z,1004.49
2018-01-21T11:35:19.080Z,1004.47
2018-01-21T11:36:19.100Z,1004.47
2018-01-21T11:37:19.068Z,1004.49
2018-01-21T11:38:19.061Z,1004.50
2018-01-21T11:39:19.056Z,1004.51
2018-01-21T11:40:19.050Z,1004.45
2018-01-21T11:41:19.046Z,1004.43
2018-01-21T11:42:19.039Z,1004.42
2018-01-21T11:43:19.033Z,1004.31
2018-01-21T11:44:19.029Z,1004.28
2018-01-21T11:45:19.023Z,1004.27
2018-01-21T11:46:19.021Z,1004.30
2018-01-21T11:47:19.012Z,1004.28
2018-01-21T11:48:19.008Z,1004.28
2018-01-21T11:49:19.007Z,1004.28
2018-01-21T11:50:19.025Z,1004.26
2018-01-21T11:51:18.992Z,1004.30
2018-01-21T11:52:18.987Z,1004.29
2018-01-21T11:53:18.982Z,1004.31
2018-01-21T11:54:18.975Z,1004.27
2018-01-21T11:55:18.970Z,1004.31
2018-01-21T11:56:18.967Z,1004.33
2018-01-21T11:57:18.959Z,1004.37
2018-01-21T11:58:18.954Z,1004.41
2018-01-21T11:59:18.949Z,1004.35
2018-01-21T12:00:18.945Z,1004.36
2018-01-21T12:01:18.940Z,1004.46
2018-01-21T12:02:18.933Z,1004.39
2018-01-21T12:03:18.928Z,1004.43
2018-01-21T12:04:18.922Z,1004.43
2018-01-21T12:05:18.919Z,1004.41
2018-01-21T12:06:18.912Z,1004.49
2018-01-21T12:07:18.909Z,1004.58
2018-01-21T12:08:18.904Z,1004.55
2018-01-21T12:09:18.898Z,1004.52
2018-01-21T12:10:18.892Z,1004.50
2018-01-21T12:11:18.887Z,1004.51
2018-01-21T12:12:18.882Z,1004.50
2018-01-21T12:13:18.878Z,1004.55
2018-01-21T12:14:18.871Z,1004.54
2018-01-21T12:15:18.866Z,1004.56
2018-01-21T12:16:18.862Z,1004.50
2018-01-21T12:17:18.857Z,1004.53